CheckWX is a tool to help pilots better visualize weather data.  It is not intended as a substitute for an official pre-flight weather briefing.

04:42:36 UTC

KPSM TAF
Portsmouth International at Pease Airport
Portsmouth, New Hampshire, USA
KPSM 230208Z 2302/2324 28012KT P6SM -SHRA BKN050 OVC080 FM231200 30018G28KT P6SM SCT050 BKN080 FM231800 31016G26KT P6SM SCT100

Mar-23@
02:00 UTC

Mar-23 @ 02:00 UTC

Mar-23@
12:00 UTC

Mar-23 @ 12:00 UTC

KPSM 230208Z 2302/2324 28012KT P6SM -SHRA BKN050 OVC080
Wind
  • 280° at 12 KTS
Conditions
Light Rain
Cloud Levels
  • Broken at 5,000' AGL
  • Overcast at 8,000' AGL

Mar-23@
12:00 UTC

Mar-23 @ 12:00 UTC

Mar-23@
18:00 UTC

Mar-23 @ 18:00 UTC

FM231200 30018G28KT P6SM SCT050 BKN080

From

From Standard forecast or significant change

Wind
  • 300° at 18 KTS
  • {Gusting to 28 KTS
Cloud Levels
  • Scattered at 5,000' AGL
  • Broken at 8,000' AGL

Mar-23@
18:00 UTC

Mar-23 @ 18:00 UTC

Mar-24@
00:00 UTC

Mar-24 @ 00:00 UTC

FM231800 31016G26KT P6SM SCT100

From

From Standard forecast or significant change

Wind
  • 310° at 16 KTS
  • {Gusting to 26 KTS
Cloud Levels
  • Scattered at 10,000' AGL